Wolford, Virginia
Current Conditions -  °F | °C
As of 5:55 AM on Thursday 23 Oct 2014 (Local Time) from KJFZ Reporting Station
Overcast Overcast  
Wind Chill: 40°   Ceiling: 1200
Heat Index: 44°   Visibility: 10mi
Dew Point: 40°   Wind: 7mph
Humidity: 85%   Direction: 330°NNW
Pressure: 30.17"   Gusts: NA
Location:  37.36°N, 81.99°W
Report Text: KJFZ 230955Z AUTO 33006KT 10SM OVC012 07/04 A3017 RMK AO2 T00660043
Loading
Personal Weather Stations






























Interactive Weather Map
Tropical Storm Tracking
New forecast layout! Learn more

10-Day Weather Forecast

Advertisements
Track Severe Weather on mobile